LIRMLIBD

Guest
Details From LIRM - GRAZZANISE
To LIBD - Bari Palese Macchie
Flight Number -
Tags generated
Created
Modified
Stats Distance 121 nm / 224 km
Max Altitude 15,300 ft / 4,663 m
Waypoints 3
Social Downloads 0
Likes 0
Share VATSIM

Download

Looking for another format? Having issues loading an existing format? Contact us
Advertisement - Login to hide

Notes

Basic altitude profile: - Ascent Rate: 2500ft/min - Ascent Speed: 200kts - Cruise Altitude: 10000ft - Cruise Speed: 250kts - Descent Rate: 1500ft/min - Descent Speed: 250kts Options: - Use NATs: yes - Use PACOTS: yes - Use low airways: no - Use high airways: yes

Route

LIRM EKTOL LIBD

ID Type Via Altitude Latitude Longitude Leg Dist Tot Dist Heading (true) Name
O LIRM APT - 0 ft / 0 m 41.06095˚ 14.08190˚ - 0 nm - GRAZZANISE
EKTOL FIX - 15,300 ft / 4,663 m 41.10778˚ 15.17139˚ 49 nm 49 nm 86° / 87° -
O LIBD APT - 0 ft / 0 m 41.13787˚ 16.75832˚ 71 nm 121 nm 88° / 89° Bari Palese Macchie

Altitude Profile

Advertisement - Login to hide

LIRM

Details ICAO LIRM
Name GRAZZANISE
Region Italy
Timezone Europe/Rome (UTC+1.0)
Stats Elevation 29 ft / 9 m (AMSL)
Location 41.060946° 14.081901°
Runways 1
Magnetic Variation 3.282° E

METAR

LIRM 112255Z /////KT 9999 SCT070 14/13 Q1013

Decode

TAF

Not found

Departure Runways

ID Width Length Bearing (true) Bearing (mag) Surface Threshold Offset Overrun Length
06 98 ft / 30 m 9,800 ft / 2,987 m 59.80° 56.52° Asphalt 318 ft / 97 m 157 ft / 48 m
24 98 ft / 30 m 9,800 ft / 2,987 m 239.82° 236.54° Asphalt 315 ft / 96 m 328 ft / 100 m

LIBD

Details ICAO LIBD (BRI)
Name Bari Palese Macchie
Region Italy
Timezone Europe/Rome (UTC+1.0)
Stats Elevation 177 ft / 54 m (AMSL)
Location 41.137865° 16.758318°
Runways 1
Magnetic Variation 3.736° E

METAR

LIBD 112250Z 16005KT 120V190 CAVOK 13/11 Q1013

Decode

TAF

TAF LIBD 111700Z 1118/1218 17014KT 9999 SCT030= TAF LIBP 111700Z 1118/1218 25018G28KT 9999 FEW040 BKN070 BECMG 1206/1208 25012KT

Decode

Destination Runways

ID Width Length Bearing (true) Bearing (mag) Surface Threshold Offset Overrun Length
07 148 ft / 45 m 9,262 ft / 2,823 m 69.39° 65.65° Asphalt 1,257 ft / 383 m 0 ft / 0 m
25 148 ft / 45 m 9,262 ft / 2,823 m 249.42° 245.68° Asphalt 0 ft / 0 m 194 ft / 59 m

Approach Navaids

Runway Type Ident Frequency Range Bearing (true) Bearing (mag) Slope Elevation
07 Localiser BAP 111.35 MHz 18 nm / 33 km 69.25° 65.51° - 177 ft / 54 m (AMSL)
07 Glidescope BAP 111.35 MHz 10 nm / 19 km 69.25° 65.51° 3.32° 177 ft / 54 m (AMSL)
07 DME BAP 111.35 MHz 18 nm / 33 km - - - 183 ft / 56 m (AMSL)

Popular Alternatives